Terminal Aerodrome Forecast
Issued by NWS

Home | Current Version | Previous Version | Text Only | Print | Product List | Glossary On
Versions: 1 2 3 4 5 6 7 8 9 10 11 12 13 14 15 16 17 18 19 20
961
FTUS44 KLUB 291556 AAC
TAFCDS
TAF AMD
KCDS 291556Z 2916/3012 12009KT P6SM OVC018
     FM291630 15011KT P6SM SCT015
     FM291800 21015G25KT P6SM FEW070=

USA.gov is the U.S. government's official web portal to all federal, state and local government web resources and services.